createdAt,value
2022-12-27T00:03:25.300Z,99.36
2022-12-27T00:08:27.951Z,98.90
2022-12-27T00:13:30.904Z,98.66
2022-12-27T00:18:34.010Z,98.16
2022-12-27T00:23:41.503Z,97.85
2022-12-27T00:28:45.141Z,97.75
2022-12-27T00:33:50.458Z,96.45
2022-12-27T00:38:53.920Z,95.46
2022-12-27T00:43:56.649Z,94.78
2022-12-27T00:48:59.426Z,94.88
2022-12-27T00:54:02.193Z,94.66
2022-12-27T00:59:05.581Z,94.46
2022-12-27T01:04:08.457Z,93.88
2022-12-27T01:09:11.353Z,94.59
2022-12-27T01:14:14.025Z,94.37
2022-12-27T01:19:17.060Z,94.18
2022-12-27T01:24:19.957Z,94.67
2022-12-27T01:29:22.654Z,94.39
2022-12-27T01:34:25.368Z,94.08
2022-12-27T01:39:28.144Z,94.04
2022-12-27T01:44:43.988Z,94.17
2022-12-27T01:49:53.446Z,94.55
2022-12-27T01:55:01.408Z,94.09
2022-12-27T02:00:05.133Z,94.12
2022-12-27T02:05:10.438Z,94.37
2022-12-27T02:10:13.761Z,93.95
2022-12-27T02:15:16.504Z,94.05
2022-12-27T02:20:22.910Z,94.19
2022-12-27T02:26:07.811Z,94.04
2022-12-27T02:31:24.954Z,93.87
2022-12-27T02:36:31.815Z,93.29
2022-12-27T02:41:54.096Z,93.63
2022-12-27T02:47:16.158Z,94.13
2022-12-27T02:53:08.313Z,94.31
2022-12-27T02:58:31.668Z,94.07
2022-12-27T03:03:47.737Z,93.98
2022-12-27T03:09:03.015Z,93.53
2022-12-27T03:14:50.139Z,93.73
2022-12-27T03:20:16.733Z,93.71
2022-12-27T03:25:28.791Z,93.63
2022-12-27T03:30:50.488Z,93.71
2022-12-27T03:36:32.205Z,93.33
2022-12-27T03:41:59.353Z,93.40
2022-12-27T03:47:10.041Z,93.18
2022-12-27T03:52:18.598Z,93.57
2022-12-27T03:57:25.168Z,93.64
2022-12-27T04:02:28.077Z,93.48
2022-12-27T04:07:30.939Z,93.28
2022-12-27T04:12:52.617Z,93.41
2022-12-27T04:18:14.059Z,92.92
2022-12-27T04:23:35.910Z,92.73
2022-12-27T04:28:57.216Z,92.94
2022-12-27T04:34:18.787Z,93.16
2022-12-27T04:39:21.792Z,92.84
2022-12-27T04:44:43.329Z,92.92
2022-12-27T04:50:04.766Z,92.85
2022-12-27T04:55:20.403Z,92.48
2022-12-27T05:00:46.322Z,92.25
2022-12-27T05:05:51.635Z,92.25
2022-12-27T05:11:13.326Z,92.36
2022-12-27T05:16:16.112Z,92.64
2022-12-27T05:21:19.123Z,92.80
2022-12-27T05:26:25.302Z,92.57
2022-12-27T05:31:29.188Z,92.72
2022-12-27T05:36:31.919Z,92.75
2022-12-27T05:41:34.642Z,92.69
2022-12-27T05:46:37.494Z,92.58
2022-12-27T05:51:40.226Z,92.68
2022-12-27T05:56:42.930Z,92.74
2022-12-27T06:01:45.729Z,92.48
2022-12-27T06:06:48.636Z,92.67
2022-12-27T06:11:51.285Z,92.60
2022-12-27T06:16:54.063Z,92.58
2022-12-27T06:21:56.939Z,92.54
2022-12-27T06:26:59.744Z,92.51
2022-12-27T06:32:02.538Z,92.48
2022-12-27T06:37:05.273Z,92.33
2022-12-27T06:42:08.561Z,92.92
2022-12-27T06:47:11.519Z,92.75
2022-12-27T06:52:14.254Z,92.71
2022-12-27T06:57:17.366Z,92.82
2022-12-27T07:02:20.392Z,92.67
2022-12-27T07:07:23.378Z,92.81
2022-12-27T07:12:27.353Z,92.77
2022-12-27T07:17:34.351Z,93.10
2022-12-27T07:22:37.013Z,93.43
2022-12-27T07:27:39.730Z,93.26
2022-12-27T07:32:42.424Z,93.45
2022-12-27T07:37:45.205Z,93.53
2022-12-27T07:42:48.458Z,93.85
2022-12-27T07:47:51.221Z,94.11
2022-12-27T07:52:53.908Z,94.06
2022-12-27T07:57:57.864Z,94.45
2022-12-27T08:03:00.888Z,94.26
2022-12-27T08:08:05.389Z,94.58
2022-12-27T08:13:08.177Z,94.54
2022-12-27T08:18:11.002Z,94.58
2022-12-27T08:23:13.794Z,94.11
2022-12-27T08:28:18.020Z,94.31
2022-12-27T08:33:20.731Z,93.91
2022-12-27T08:38:23.530Z,93.35
2022-12-27T08:43:26.489Z,93.68
2022-12-27T08:48:32.519Z,93.22
2022-12-27T08:53:35.301Z,92.97
2022-12-27T08:58:38.010Z,92.24
2022-12-27T09:03:40.728Z,92.00
2022-12-27T09:08:45.513Z,91.28
2022-12-27T09:13:48.564Z,91.17
2022-12-27T09:18:53.256Z,91.50
2022-12-27T09:23:56.315Z,90.78
2022-12-27T09:29:00.351Z,90.48
2022-12-27T09:34:03.150Z,89.55
2022-12-27T09:39:05.921Z,88.59
2022-12-27T09:44:14.898Z,87.92
2022-12-27T09:49:27.579Z,86.64
2022-12-27T09:54:46.413Z,87.21
2022-12-27T09:59:52.776Z,87.34
2022-12-27T10:05:19.616Z,87.30
2022-12-27T10:10:42.645Z,87.40
2022-12-27T10:15:48.504Z,87.32
2022-12-27T10:21:24.168Z,86.91
2022-12-27T10:26:27.341Z,86.88
2022-12-27T10:31:32.004Z,86.84
2022-12-27T10:36:34.798Z,86.48
2022-12-27T10:41:50.158Z,86.87
2022-12-27T10:46:55.374Z,87.19
2022-12-27T10:52:08.544Z,87.47
2022-12-27T10:57:27.991Z,87.54
2022-12-27T11:02:30.739Z,86.72
2022-12-27T11:07:34.755Z,86.64
2022-12-27T11:12:37.854Z,86.96
2022-12-27T11:17:52.097Z,86.65
2022-12-27T11:23:12.954Z,86.61
2022-12-27T11:28:30.762Z,86.56
2022-12-27T11:33:37.636Z,86.08
2022-12-27T11:38:44.681Z,86.60
2022-12-27T11:43:52.926Z,86.96
2022-12-27T11:48:58.801Z,86.29
2022-12-27T11:54:32.142Z,86.46
2022-12-27T11:59:43.896Z,86.37
2022-12-27T12:05:08.021Z,86.60
2022-12-27T12:10:19.552Z,86.76
2022-12-27T12:15:22.470Z,86.52
2022-12-27T12:20:50.812Z,86.31
2022-12-27T12:25:56.618Z,86.82
2022-12-27T12:31:11.152Z,87.41
2022-12-27T12:36:29.205Z,86.92
2022-12-27T12:41:53.155Z,86.89
2022-12-27T12:47:10.188Z,86.81
2022-12-27T12:52:24.973Z,87.16
2022-12-27T12:57:57.374Z,87.93
2022-12-27T13:03:21.889Z,88.32
2022-12-27T13:08:38.996Z,89.08
2022-12-27T13:14:22.893Z,89.94
2022-12-27T13:19:47.641Z,90.66
2022-12-27T13:25:14.357Z,90.67
2022-12-27T13:30:43.603Z,90.96
2022-12-27T13:36:14.490Z,90.79
2022-12-27T13:42:11.265Z,91.42
2022-12-27T13:47:39.023Z,91.72
2022-12-27T13:53:11.800Z,92.17
2022-12-27T13:58:36.861Z,93.05
2022-12-27T14:03:54.856Z,93.96
2022-12-27T14:09:10.686Z,94.50
2022-12-27T14:14:17.612Z,94.91
2022-12-27T14:19:29.382Z,95.32
2022-12-27T14:24:53.336Z,95.53
2022-12-27T14:30:21.888Z,95.39
2022-12-27T14:36:08.509Z,95.84
2022-12-27T14:41:44.751Z,96.32
2022-12-27T14:46:59.590Z,96.08
2022-12-27T14:52:34.869Z,96.12
2022-12-27T14:57:48.249Z,95.74
2022-12-27T15:03:33.690Z,95.93
2022-12-27T15:08:47.508Z,96.10
2022-12-27T15:13:59.121Z,96.19
2022-12-27T15:19:29.318Z,96.24
2022-12-27T15:24:47.376Z,96.47
2022-12-27T15:30:17.022Z,96.24
2022-12-27T15:35:57.757Z,96.43
2022-12-27T15:41:09.613Z,96.43
2022-12-27T15:46:56.067Z,96.35
2022-12-27T15:52:35.709Z,96.42
2022-12-27T15:57:44.342Z,96.22
2022-12-27T16:02:47.186Z,95.92
2022-12-27T16:07:52.312Z,95.99
2022-12-27T16:12:58.437Z,96.00
2022-12-27T16:18:02.694Z,96.09
2022-12-27T16:23:08.034Z,95.97
2022-12-27T16:28:17.025Z,96.03
2022-12-27T16:33:26.008Z,96.14
2022-12-27T16:38:30.753Z,95.62
2022-12-27T16:44:02.000Z,95.57
2022-12-27T16:49:16.662Z,95.38
2022-12-27T16:54:48.068Z,95.37
2022-12-27T17:00:35.673Z,95.19
2022-12-27T17:05:44.800Z,94.99
2022-12-27T17:10:59.933Z,94.84
2022-12-27T17:16:05.464Z,95.24
2022-12-27T17:21:14.956Z,94.75
2022-12-27T17:26:42.537Z,94.30
2022-12-27T17:31:58.643Z,94.54
2022-12-27T17:37:11.517Z,93.70
2022-12-27T17:42:52.275Z,93.31
2022-12-27T17:48:09.725Z,93.03
2022-12-27T17:53:35.201Z,92.77
2022-12-27T17:58:38.457Z,93.26
2022-12-27T18:03:47.538Z,93.07
2022-12-27T18:08:51.315Z,92.86
2022-12-27T18:13:56.691Z,92.32
2022-12-27T18:19:00.828Z,92.38
2022-12-27T18:24:23.789Z,92.39
2022-12-27T18:29:26.562Z,92.23
2022-12-27T18:34:33.415Z,92.37
2022-12-27T18:39:38.874Z,92.53
2022-12-27T18:44:53.075Z,92.41
2022-12-27T18:50:02.417Z,92.53
2022-12-27T18:55:20.878Z,92.30
2022-12-27T19:00:26.673Z,92.30
2022-12-27T19:05:30.340Z,92.32
2022-12-27T19:10:33.753Z,92.36
2022-12-27T19:15:44.931Z,92.31
2022-12-27T19:20:59.955Z,92.50
2022-12-27T19:26:17.852Z,92.69
2022-12-27T19:31:22.126Z,92.81
2022-12-27T19:36:28.019Z,93.18
2022-12-27T19:41:31.863Z,93.20
2022-12-27T19:46:34.677Z,93.06
2022-12-27T19:51:37.839Z,93.24
2022-12-27T19:56:40.492Z,93.18
2022-12-27T20:01:45.725Z,93.48
2022-12-27T20:06:49.306Z,93.38
2022-12-27T20:11:52.015Z,93.49
2022-12-27T20:16:54.813Z,93.62
2022-12-27T20:21:57.952Z,93.80
2022-12-27T20:27:01.257Z,93.78
2022-12-27T20:32:04.130Z,94.09
2022-12-27T20:37:07.231Z,94.21
2022-12-27T20:42:10.108Z,94.42
2022-12-27T20:47:12.826Z,94.69
2022-12-27T20:52:15.674Z,94.86
2022-12-27T20:57:18.474Z,94.82
2022-12-27T21:02:21.359Z,95.04
2022-12-27T21:07:24.382Z,95.15
2022-12-27T21:12:27.287Z,95.09
2022-12-27T21:17:30.195Z,95.34
2022-12-27T21:22:32.994Z,95.26
2022-12-27T21:27:36.033Z,95.36
2022-12-27T21:32:38.806Z,95.43
2022-12-27T21:37:41.632Z,95.80
2022-12-27T21:42:44.558Z,95.88
2022-12-27T21:47:47.520Z,96.28
2022-12-27T21:52:50.525Z,96.55
2022-12-27T21:57:53.444Z,96.69
2022-12-27T22:02:56.455Z,96.73
2022-12-27T22:07:59.544Z,96.87
2022-12-27T22:13:02.559Z,96.95
2022-12-27T22:18:05.444Z,97.19
2022-12-27T22:23:08.332Z,97.21
2022-12-27T22:28:11.270Z,97.11
2022-12-27T22:33:15.772Z,97.32
2022-12-27T22:38:18.671Z,97.12
2022-12-27T22:43:21.574Z,97.01
2022-12-27T22:48:24.588Z,97.04
2022-12-27T22:53:27.493Z,96.86
2022-12-27T22:58:32.778Z,97.01
2022-12-27T23:03:35.586Z,97.05
2022-12-27T23:08:42.888Z,96.97
2022-12-27T23:13:47.298Z,97.13
2022-12-27T23:18:50.367Z,96.97
2022-12-27T23:23:53.080Z,96.94
2022-12-27T23:28:56.244Z,96.97
2022-12-27T23:33:59.625Z,96.97
2022-12-27T23:39:02.667Z,97.10
2022-12-27T23:44:05.525Z,97.04
2022-12-27T23:49:08.673Z,97.01
2022-12-27T23:54:11.456Z,97.01
2022-12-27T23:59:14.183Z,97.06
